Ligandtri — FGE8056 — position and weather

sailwx.info

Track history (hours):
 
Tides and Currents Weather Stations Pressure Air Temp Water Temp Dewpoint Dewpoint Depression Visibility Wind Speed Wind Dir Waves Ship Positions

Ligandtri

Last reported at 2017-Sep-11 16:44 UTC. Time now 2017-Sep-26 22:01 UTC.
Position N 47°43' W 003°22'.
Warning: this ship's position is 15 days out of date.

Length 20 m.

Type: Sailing vessel. MMSI: 227677850.

Date/timePositionNaut miles runAvg speedWind from/ knotsBaromVisibWave heightAir tempDewpointWater temp
2017-Sep-11 16:44N 47°43' W 003°22'0 0.6
2017-Sep-11 16:27N 47°43' W 003°22'3 7.7
2017-Sep-11 16:00N 47°40' W 003°24'2 0.0
2017-Sep-09 17:32N 47°39' W 003°27'0 1.4
2017-Sep-09 17:30N 47°39' W 003°27'2 3.2
2017-Sep-09 17:00N 47°38' W 003°25'0 0.0
2017-Sep-09 16:28N 47°38' W 003°25'2 3.6
2017-Sep-09 16:00N 47°39' W 003°26'  
2017-Sep-03 11:04N 47°39' W 003°26'0 0.0
2017-Sep-03 10:57N 47°39' W 003°26'  
Track history (hours):
 
Tides and Currents Weather Stations Pressure Air Temp Water Temp Dewpoint Dewpoint Depression Visibility Wind Speed Wind Dir Waves Ship Positions

Ligandtri

Last reported at 2017-Sep-11 16:44 UTC. Time now 2017-Sep-26 22:01 UTC.
Position N 47°43' W 003°22'.
Warning: this ship's position is 15 days out of date.

Length 20 m.

Type: Sailing vessel. MMSI: 227677850.

Date/timePositionNaut miles runAvg speedWind from/ knotsBaromVisibWave heightAir tempDewpointWater temp
2017-Sep-11 16:44N 47°43' W 003°22'0 0.6
2017-Sep-11 16:27N 47°43' W 003°22'3 7.7
2017-Sep-11 16:00N 47°40' W 003°24'2 0.0
2017-Sep-09 17:32N 47°39' W 003°27'0 1.4
2017-Sep-09 17:30N 47°39' W 003°27'2 3.2
2017-Sep-09 17:00N 47°38' W 003°25'0 0.0
2017-Sep-09 16:28N 47°38' W 003°25'2 3.6
2017-Sep-09 16:00N 47°39' W 003°26'  
2017-Sep-03 11:04N 47°39' W 003°26'0 0.0
2017-Sep-03 10:57N 47°39' W 003°26'  

Dump ship's entire track history